sensor_id;sensor_type;location;lat;lon;timestamp;temperature;humidity
22337;DHT22;14992;50.844;4.418;2024-03-06T00:01:22;9.50;99.90
22337;DHT22;14992;50.844;4.418;2024-03-06T00:03:52;9.40;99.90
22337;DHT22;14992;50.844;4.418;2024-03-06T00:06:21;9.40;99.90
22337;DHT22;14992;50.844;4.418;2024-03-06T00:08:50;9.40;99.90
22337;DHT22;14992;50.844;4.418;2024-03-06T00:11:19;9.40;99.90
22337;DHT22;14992;50.844;4.418;2024-03-06T00:13:48;9.30;99.90
22337;DHT22;14992;50.844;4.418;2024-03-06T00:16:17;9.30;99.90
22337;DHT22;14992;50.844;4.418;2024-03-06T00:18:47;9.30;99.90
22337;DHT22;14992;50.844;4.418;2024-03-06T00:21:17;9.40;99.90
22337;DHT22;14992;50.844;4.418;2024-03-06T00:23:46;9.40;99.90
22337;DHT22;14992;50.844;4.418;2024-03-06T00:26:15;9.30;99.90
22337;DHT22;14992;50.844;4.418;2024-03-06T00:28:44;9.20;99.90
22337;DHT22;14992;50.844;4.418;2024-03-06T00:31:13;9.20;99.90
22337;DHT22;14992;50.844;4.418;2024-03-06T00:33:42;9.10;99.90
22337;DHT22;14992;50.844;4.418;2024-03-06T00:36:11;9.10;99.90
22337;DHT22;14992;50.844;4.418;2024-03-06T00:38:41;9.10;99.90
22337;DHT22;14992;50.844;4.418;2024-03-06T00:41:10;9.10;99.90
22337;DHT22;14992;50.844;4.418;2024-03-06T00:43:38;9.10;99.90
22337;DHT22;14992;50.844;4.418;2024-03-06T00:46:07;9.20;99.90
22337;DHT22;14992;50.844;4.418;2024-03-06T00:48:36;9.00;99.90
22337;DHT22;14992;50.844;4.418;2024-03-06T00:51:09;9.00;99.90
22337;DHT22;14992;50.844;4.418;2024-03-06T00:53:40;9.00;99.90
22337;DHT22;14992;50.844;4.418;2024-03-06T00:56:09;9.10;99.90
22337;DHT22;14992;50.844;4.418;2024-03-06T00:58:38;9.20;99.90
22337;DHT22;14992;50.844;4.418;2024-03-06T01:01:07;9.20;99.90
22337;DHT22;14992;50.844;4.418;2024-03-06T01:03:37;8.90;99.90
22337;DHT22;14992;50.844;4.418;2024-03-06T01:06:06;8.80;99.90
22337;DHT22;14992;50.844;4.418;2024-03-06T01:08:35;8.70;99.90
22337;DHT22;14992;50.844;4.418;2024-03-06T01:11:05;8.60;99.90
22337;DHT22;14992;50.844;4.418;2024-03-06T01:13:34;8.50;99.90
22337;DHT22;14992;50.844;4.418;2024-03-06T01:16:04;8.30;99.90
22337;DHT22;14992;50.844;4.418;2024-03-06T01:18:33;8.20;99.90
22337;DHT22;14992;50.844;4.418;2024-03-06T01:21:02;8.20;99.90
22337;DHT22;14992;50.844;4.418;2024-03-06T01:23:31;8.20;99.90
22337;DHT22;14992;50.844;4.418;2024-03-06T01:26:00;8.10;99.90
22337;DHT22;14992;50.844;4.418;2024-03-06T01:28:30;8.10;99.90
22337;DHT22;14992;50.844;4.418;2024-03-06T01:30:59;8.10;99.90
22337;DHT22;14992;50.844;4.418;2024-03-06T01:33:28;8.10;99.90
22337;DHT22;14992;50.844;4.418;2024-03-06T01:35:56;7.90;99.90
22337;DHT22;14992;50.844;4.418;2024-03-06T01:38:25;7.90;99.90
22337;DHT22;14992;50.844;4.418;2024-03-06T01:40:54;7.80;99.90
22337;DHT22;14992;50.844;4.418;2024-03-06T01:43:24;7.80;99.90
22337;DHT22;14992;50.844;4.418;2024-03-06T01:45:55;7.70;99.90
22337;DHT22;14992;50.844;4.418;2024-03-06T01:48:27;7.80;99.90
22337;DHT22;14992;50.844;4.418;2024-03-06T01:50:58;7.80;99.90
22337;DHT22;14992;50.844;4.418;2024-03-06T01:53:29;7.60;99.90
22337;DHT22;14992;50.844;4.418;2024-03-06T01:55:59;7.60;99.90
22337;DHT22;14992;50.844;4.418;2024-03-06T01:58:29;7.60;99.90
22337;DHT22;14992;50.844;4.418;2024-03-06T02:00:59;7.60;99.90
22337;DHT22;14992;50.844;4.418;2024-03-06T02:03:29;7.60;99.90
22337;DHT22;14992;50.844;4.418;2024-03-06T02:06:00;7.50;99.90
22337;DHT22;14992;50.844;4.418;2024-03-06T02:08:31;7.60;99.90
22337;DHT22;14992;50.844;4.418;2024-03-06T02:11:00;7.60;99.90
22337;DHT22;14992;50.844;4.418;2024-03-06T02:13:33;7.60;99.90
22337;DHT22;14992;50.844;4.418;2024-03-06T02:16:04;7.60;99.90
22337;DHT22;14992;50.844;4.418;2024-03-06T02:18:33;7.50;99.90
22337;DHT22;14992;50.844;4.418;2024-03-06T02:21:03;7.50;99.90
22337;DHT22;14992;50.844;4.418;2024-03-06T02:23:34;7.60;99.90
22337;DHT22;14992;50.844;4.418;2024-03-06T02:26:03;7.50;99.90
22337;DHT22;14992;50.844;4.418;2024-03-06T02:28:35;7.50;99.90
22337;DHT22;14992;50.844;4.418;2024-03-06T02:31:04;7.40;99.90
22337;DHT22;14992;50.844;4.418;2024-03-06T02:33:34;7.40;99.90
22337;DHT22;14992;50.844;4.418;2024-03-06T02:36:05;7.40;99.90
22337;DHT22;14992;50.844;4.418;2024-03-06T02:38:34;7.40;99.90
22337;DHT22;14992;50.844;4.418;2024-03-06T02:41:03;7.30;99.90
22337;DHT22;14992;50.844;4.418;2024-03-06T02:43:34;7.20;99.90
22337;DHT22;14992;50.844;4.418;2024-03-06T02:46:03;7.20;99.90
22337;DHT22;14992;50.844;4.418;2024-03-06T02:48:32;7.20;99.90
22337;DHT22;14992;50.844;4.418;2024-03-06T02:51:03;7.20;99.90
22337;DHT22;14992;50.844;4.418;2024-03-06T02:53:32;7.30;99.90
22337;DHT22;14992;50.844;4.418;2024-03-06T02:56:01;7.20;99.90
22337;DHT22;14992;50.844;4.418;2024-03-06T02:58:30;7.10;99.90
22337;DHT22;14992;50.844;4.418;2024-03-06T03:00:59;7.20;99.90
22337;DHT22;14992;50.844;4.418;2024-03-06T03:03:30;7.20;99.90
22337;DHT22;14992;50.844;4.418;2024-03-06T03:05:58;7.20;99.90
22337;DHT22;14992;50.844;4.418;2024-03-06T03:08:29;7.10;99.90
22337;DHT22;14992;50.844;4.418;2024-03-06T03:10:58;7.20;99.90
22337;DHT22;14992;50.844;4.418;2024-03-06T03:13:27;7.20;99.90
22337;DHT22;14992;50.844;4.418;2024-03-06T03:15:56;7.20;99.90
22337;DHT22;14992;50.844;4.418;2024-03-06T03:18:25;7.20;99.90
22337;DHT22;14992;50.844;4.418;2024-03-06T03:20:54;7.20;99.90
22337;DHT22;14992;50.844;4.418;2024-03-06T03:23:23;7.20;99.90
22337;DHT22;14992;50.844;4.418;2024-03-06T03:25:53;7.20;99.90
22337;DHT22;14992;50.844;4.418;2024-03-06T03:28:22;7.20;99.90
22337;DHT22;14992;50.844;4.418;2024-03-06T03:30:51;7.20;99.90
22337;DHT22;14992;50.844;4.418;2024-03-06T03:33:20;7.10;99.90
22337;DHT22;14992;50.844;4.418;2024-03-06T03:35:48;7.00;99.90
22337;DHT22;14992;50.844;4.418;2024-03-06T03:38:17;7.00;99.90
22337;DHT22;14992;50.844;4.418;2024-03-06T03:40:46;6.90;99.90
22337;DHT22;14992;50.844;4.418;2024-03-06T03:43:17;6.80;99.90
22337;DHT22;14992;50.844;4.418;2024-03-06T03:45:46;6.90;99.90
22337;DHT22;14992;50.844;4.418;2024-03-06T03:48:15;6.80;99.90
22337;DHT22;14992;50.844;4.418;2024-03-06T03:50:44;6.90;99.90
22337;DHT22;14992;50.844;4.418;2024-03-06T03:53:13;7.20;99.90
22337;DHT22;14992;50.844;4.418;2024-03-06T03:55:43;7.30;99.90
22337;DHT22;14992;50.844;4.418;2024-03-06T03:58:12;7.30;99.90
22337;DHT22;14992;50.844;4.418;2024-03-06T04:00:42;7.20;99.90
22337;DHT22;14992;50.844;4.418;2024-03-06T04:03:11;7.00;99.90
22337;DHT22;14992;50.844;4.418;2024-03-06T04:05:40;7.00;99.90
22337;DHT22;14992;50.844;4.418;2024-03-06T04:08:09;6.90;99.90
22337;DHT22;14992;50.844;4.418;2024-03-06T04:10:38;6.80;99.90
22337;DHT22;14992;50.844;4.418;2024-03-06T04:13:08;6.70;99.90
22337;DHT22;14992;50.844;4.418;2024-03-06T04:15:37;6.70;99.90
22337;DHT22;14992;50.844;4.418;2024-03-06T04:18:08;6.70;99.90
22337;DHT22;14992;50.844;4.418;2024-03-06T04:20:36;6.70;99.90
22337;DHT22;14992;50.844;4.418;2024-03-06T04:23:05;6.70;99.90
22337;DHT22;14992;50.844;4.418;2024-03-06T04:25:35;6.70;99.90
22337;DHT22;14992;50.844;4.418;2024-03-06T04:28:05;6.70;99.90
22337;DHT22;14992;50.844;4.418;2024-03-06T04:30:35;6.80;99.90
22337;DHT22;14992;50.844;4.418;2024-03-06T04:33:04;6.70;99.90
22337;DHT22;14992;50.844;4.418;2024-03-06T04:35:34;6.80;99.90
22337;DHT22;14992;50.844;4.418;2024-03-06T04:38:04;6.80;99.90
22337;DHT22;14992;50.844;4.418;2024-03-06T04:40:34;6.80;99.90
22337;DHT22;14992;50.844;4.418;2024-03-06T04:43:03;6.90;99.90
22337;DHT22;14992;50.844;4.418;2024-03-06T04:45:32;6.90;99.90
22337;DHT22;14992;50.844;4.418;2024-03-06T04:48:01;7.00;99.90
22337;DHT22;14992;50.844;4.418;2024-03-06T04:50:30;6.80;99.90
22337;DHT22;14992;50.844;4.418;2024-03-06T04:53:00;6.60;99.90
22337;DHT22;14992;50.844;4.418;2024-03-06T04:55:29;6.50;99.90
22337;DHT22;14992;50.844;4.418;2024-03-06T04:57:58;6.60;99.90
22337;DHT22;14992;50.844;4.418;2024-03-06T05:00:27;6.70;99.90
22337;DHT22;14992;50.844;4.418;2024-03-06T05:02:56;6.70;99.90
22337;DHT22;14992;50.844;4.418;2024-03-06T05:05:43;6.80;99.90
22337;DHT22;14992;50.844;4.418;2024-03-06T05:08:30;6.80;99.90
22337;DHT22;14992;50.844;4.418;2024-03-06T05:11:17;6.80;99.90
22337;DHT22;14992;50.844;4.418;2024-03-06T05:14:03;6.80;99.90
22337;DHT22;14992;50.844;4.418;2024-03-06T05:16:49;6.80;99.90
22337;DHT22;14992;50.844;4.418;2024-03-06T05:19:36;6.40;99.90
22337;DHT22;14992;50.844;4.418;2024-03-06T05:22:22;6.20;99.90
22337;DHT22;14992;50.844;4.418;2024-03-06T05:25:09;6.20;99.90
22337;DHT22;14992;50.844;4.418;2024-03-06T05:27:56;6.20;99.90
22337;DHT22;14992;50.844;4.418;2024-03-06T05:30:42;6.50;99.90
22337;DHT22;14992;50.844;4.418;2024-03-06T05:33:36;6.60;99.90
22337;DHT22;14992;50.844;4.418;2024-03-06T05:36:22;6.30;99.90
22337;DHT22;14992;50.844;4.418;2024-03-06T05:39:08;6.10;99.90
22337;DHT22;14992;50.844;4.418;2024-03-06T05:42:01;6.00;99.90
22337;DHT22;14992;50.844;4.418;2024-03-06T05:44:49;6.00;99.90
22337;DHT22;14992;50.844;4.418;2024-03-06T05:47:39;6.00;99.90
22337;DHT22;14992;50.844;4.418;2024-03-06T05:50:26;5.90;99.90
22337;DHT22;14992;50.844;4.418;2024-03-06T05:53:12;5.90;99.90
22337;DHT22;14992;50.844;4.418;2024-03-06T05:55:59;6.00;99.90
22337;DHT22;14992;50.844;4.418;2024-03-06T05:58:46;6.10;99.90
22337;DHT22;14992;50.844;4.418;2024-03-06T06:01:17;6.10;99.90
22337;DHT22;14992;50.844;4.418;2024-03-06T06:03:48;6.20;99.90
22337;DHT22;14992;50.844;4.418;2024-03-06T06:06:17;6.20;99.90
22337;DHT22;14992;50.844;4.418;2024-03-06T06:08:46;6.10;99.90
22337;DHT22;14992;50.844;4.418;2024-03-06T06:11:15;6.10;99.90
22337;DHT22;14992;50.844;4.418;2024-03-06T06:13:45;6.20;99.90
22337;DHT22;14992;50.844;4.418;2024-03-06T06:16:14;6.20;99.90
22337;DHT22;14992;50.844;4.418;2024-03-06T06:18:43;6.30;99.90
22337;DHT22;14992;50.844;4.418;2024-03-06T06:21:12;6.30;99.90
22337;DHT22;14992;50.844;4.418;2024-03-06T06:23:41;6.40;99.90
22337;DHT22;14992;50.844;4.418;2024-03-06T06:26:10;6.20;99.90
22337;DHT22;14992;50.844;4.418;2024-03-06T06:28:40;6.20;99.90
22337;DHT22;14992;50.844;4.418;2024-03-06T06:31:11;6.20;99.90
22337;DHT22;14992;50.844;4.418;2024-03-06T06:33:40;6.20;99.90
22337;DHT22;14992;50.844;4.418;2024-03-06T06:36:09;6.10;99.90
22337;DHT22;14992;50.844;4.418;2024-03-06T06:38:37;6.10;99.90
22337;DHT22;14992;50.844;4.418;2024-03-06T06:41:06;6.10;99.90
22337;DHT22;14992;50.844;4.418;2024-03-06T06:43:35;6.00;99.90
22337;DHT22;14992;50.844;4.418;2024-03-06T06:46:05;6.00;99.90
22337;DHT22;14992;50.844;4.418;2024-03-06T06:48:35;6.00;99.90
22337;DHT22;14992;50.844;4.418;2024-03-06T06:51:04;6.00;99.90
22337;DHT22;14992;50.844;4.418;2024-03-06T06:53:33;6.10;99.90
22337;DHT22;14992;50.844;4.418;2024-03-06T06:56:02;6.20;99.90
22337;DHT22;14992;50.844;4.418;2024-03-06T06:58:31;6.30;99.90
22337;DHT22;14992;50.844;4.418;2024-03-06T07:01:00;6.40;99.90
22337;DHT22;14992;50.844;4.418;2024-03-06T07:03:29;6.40;99.90
22337;DHT22;14992;50.844;4.418;2024-03-06T07:05:59;6.30;99.90
22337;DHT22;14992;50.844;4.418;2024-03-06T07:08:28;6.40;99.90
22337;DHT22;14992;50.844;4.418;2024-03-06T07:10:57;6.60;99.90
22337;DHT22;14992;50.844;4.418;2024-03-06T07:13:26;6.60;99.90
22337;DHT22;14992;50.844;4.418;2024-03-06T07:15:55;6.50;99.90
22337;DHT22;14992;50.844;4.418;2024-03-06T07:18:24;6.50;99.90
22337;DHT22;14992;50.844;4.418;2024-03-06T07:20:53;6.60;99.90
22337;DHT22;14992;50.844;4.418;2024-03-06T07:23:23;6.60;99.90
22337;DHT22;14992;50.844;4.418;2024-03-06T07:25:52;6.50;99.90
22337;DHT22;14992;50.844;4.418;2024-03-06T07:28:21;6.50;99.90
22337;DHT22;14992;50.844;4.418;2024-03-06T07:30:50;6.60;99.90
22337;DHT22;14992;50.844;4.418;2024-03-06T07:33:19;6.70;99.90
22337;DHT22;14992;50.844;4.418;2024-03-06T07:35:48;6.80;99.90
22337;DHT22;14992;50.844;4.418;2024-03-06T07:38:17;6.90;99.90
22337;DHT22;14992;50.844;4.418;2024-03-06T07:40:48;7.00;99.90
22337;DHT22;14992;50.844;4.418;2024-03-06T07:43:17;7.10;99.90
22337;DHT22;14992;50.844;4.418;2024-03-06T07:45:46;7.20;99.90
22337;DHT22;14992;50.844;4.418;2024-03-06T07:48:16;7.20;99.90
22337;DHT22;14992;50.844;4.418;2024-03-06T07:50:45;7.30;99.90
22337;DHT22;14992;50.844;4.418;2024-03-06T07:53:14;7.50;99.90
22337;DHT22;14992;50.844;4.418;2024-03-06T07:55:44;7.50;99.90
22337;DHT22;14992;50.844;4.418;2024-03-06T07:58:14;7.50;99.90
22337;DHT22;14992;50.844;4.418;2024-03-06T08:00:44;7.50;99.90
22337;DHT22;14992;50.844;4.418;2024-03-06T08:03:13;7.60;99.90
22337;DHT22;14992;50.844;4.418;2024-03-06T08:05:43;7.70;99.90
22337;DHT22;14992;50.844;4.418;2024-03-06T08:08:12;7.80;99.90
22337;DHT22;14992;50.844;4.418;2024-03-06T08:10:42;8.00;99.90
22337;DHT22;14992;50.844;4.418;2024-03-06T08:13:13;8.10;99.90
22337;DHT22;14992;50.844;4.418;2024-03-06T08:15:42;8.10;99.90
22337;DHT22;14992;50.844;4.418;2024-03-06T08:18:12;8.20;99.90
22337;DHT22;14992;50.844;4.418;2024-03-06T08:20:42;8.30;99.90
22337;DHT22;14992;50.844;4.418;2024-03-06T08:23:11;8.40;99.90
22337;DHT22;14992;50.844;4.418;2024-03-06T08:25:40;8.50;99.90
22337;DHT22;14992;50.844;4.418;2024-03-06T08:28:09;8.60;99.90
22337;DHT22;14992;50.844;4.418;2024-03-06T08:30:39;8.70;99.90
22337;DHT22;14992;50.844;4.418;2024-03-06T08:33:08;8.70;99.90
22337;DHT22;14992;50.844;4.418;2024-03-06T08:35:37;8.80;99.90
22337;DHT22;14992;50.844;4.418;2024-03-06T08:38:06;8.90;99.90
22337;DHT22;14992;50.844;4.418;2024-03-06T08:40:35;8.90;99.90
22337;DHT22;14992;50.844;4.418;2024-03-06T08:43:07;8.90;99.90
22337;DHT22;14992;50.844;4.418;2024-03-06T08:45:38;9.00;99.90
22337;DHT22;14992;50.844;4.418;2024-03-06T08:48:07;9.10;99.90
22337;DHT22;14992;50.844;4.418;2024-03-06T08:50:36;9.20;99.90
22337;DHT22;14992;50.844;4.418;2024-03-06T08:53:05;9.30;99.90
22337;DHT22;14992;50.844;4.418;2024-03-06T08:55:36;9.40;99.90
22337;DHT22;14992;50.844;4.418;2024-03-06T08:58:06;9.40;99.90
22337;DHT22;14992;50.844;4.418;2024-03-06T09:00:35;9.40;99.90
22337;DHT22;14992;50.844;4.418;2024-03-06T09:03:06;9.50;99.90
22337;DHT22;14992;50.844;4.418;2024-03-06T09:05:35;9.50;99.90
22337;DHT22;14992;50.844;4.418;2024-03-06T09:08:04;9.60;99.90
22337;DHT22;14992;50.844;4.418;2024-03-06T09:10:37;9.60;99.90
22337;DHT22;14992;50.844;4.418;2024-03-06T09:13:05;9.50;99.90
22337;DHT22;14992;50.844;4.418;2024-03-06T09:15:34;9.60;99.90
22337;DHT22;14992;50.844;4.418;2024-03-06T09:18:03;9.60;99.90
22337;DHT22;14992;50.844;4.418;2024-03-06T09:20:35;9.80;99.90
22337;DHT22;14992;50.844;4.418;2024-03-06T09:23:04;9.90;99.90
22337;DHT22;14992;50.844;4.418;2024-03-06T09:25:33;9.90;99.90
22337;DHT22;14992;50.844;4.418;2024-03-06T09:28:02;10.00;99.90
22337;DHT22;14992;50.844;4.418;2024-03-06T09:30:32;10.00;99.90
22337;DHT22;14992;50.844;4.418;2024-03-06T09:33:01;10.10;99.90
22337;DHT22;14992;50.844;4.418;2024-03-06T09:35:30;10.10;99.90
22337;DHT22;14992;50.844;4.418;2024-03-06T09:38:01;10.20;99.90
22337;DHT22;14992;50.844;4.418;2024-03-06T09:40:31;10.30;99.90
22337;DHT22;14992;50.844;4.418;2024-03-06T09:43:00;10.40;99.90
22337;DHT22;14992;50.844;4.418;2024-03-06T09:45:30;10.40;99.90
22337;DHT22;14992;50.844;4.418;2024-03-06T09:47:59;10.50;99.90
22337;DHT22;14992;50.844;4.418;2024-03-06T09:50:29;10.50;99.90
22337;DHT22;14992;50.844;4.418;2024-03-06T09:53:04;10.50;99.90
22337;DHT22;14992;50.844;4.418;2024-03-06T09:55:34;10.70;99.90
22337;DHT22;14992;50.844;4.418;2024-03-06T09:58:05;10.80;99.90
22337;DHT22;14992;50.844;4.418;2024-03-06T10:00:36;11.00;99.90
22337;DHT22;14992;50.844;4.418;2024-03-06T10:03:07;11.10;99.90
22337;DHT22;14992;50.844;4.418;2024-03-06T10:05:36;11.00;99.90
22337;DHT22;14992;50.844;4.418;2024-03-06T10:08:07;10.90;99.90
22337;DHT22;14992;50.844;4.418;2024-03-06T10:10:36;10.90;99.90
22337;DHT22;14992;50.844;4.418;2024-03-06T10:13:05;11.00;99.90
22337;DHT22;14992;50.844;4.418;2024-03-06T10:15:34;11.00;99.90
22337;DHT22;14992;50.844;4.418;2024-03-06T10:18:11;11.10;99.90
22337;DHT22;14992;50.844;4.418;2024-03-06T10:20:41;11.30;99.90
22337;DHT22;14992;50.844;4.418;2024-03-06T10:23:15;11.40;99.90
22337;DHT22;14992;50.844;4.418;2024-03-06T10:25:47;11.50;99.90
22337;DHT22;14992;50.844;4.418;2024-03-06T10:28:19;11.50;99.90
22337;DHT22;14992;50.844;4.418;2024-03-06T10:30:50;11.40;99.90
22337;DHT22;14992;50.844;4.418;2024-03-06T10:33:19;11.70;99.90
22337;DHT22;14992;50.844;4.418;2024-03-06T10:35:48;11.80;99.90
22337;DHT22;14992;50.844;4.418;2024-03-06T10:38:20;11.70;99.90
22337;DHT22;14992;50.844;4.418;2024-03-06T10:40:51;11.60;99.90
22337;DHT22;14992;50.844;4.418;2024-03-06T10:43:21;11.50;99.90
22337;DHT22;14992;50.844;4.418;2024-03-06T10:45:57;11.40;99.90
22337;DHT22;14992;50.844;4.418;2024-03-06T10:48:28;11.30;99.90
22337;DHT22;14992;50.844;4.418;2024-03-06T10:50:58;11.40;99.90
22337;DHT22;14992;50.844;4.418;2024-03-06T10:53:32;11.40;99.90
22337;DHT22;14992;50.844;4.418;2024-03-06T10:56:04;11.40;99.90
22337;DHT22;14992;50.844;4.418;2024-03-06T10:58:35;11.40;99.90
22337;DHT22;14992;50.844;4.418;2024-03-06T11:01:04;11.60;99.90
22337;DHT22;14992;50.844;4.418;2024-03-06T11:03:35;11.80;99.90
22337;DHT22;14992;50.844;4.418;2024-03-06T11:06:06;12.00;99.90
22337;DHT22;14992;50.844;4.418;2024-03-06T11:08:37;12.00;99.90
22337;DHT22;14992;50.844;4.418;2024-03-06T11:11:21;12.10;99.90
22337;DHT22;14992;50.844;4.418;2024-03-06T11:13:54;12.20;99.90
22337;DHT22;14992;50.844;4.418;2024-03-06T11:16:29;12.40;99.90
22337;DHT22;14992;50.844;4.418;2024-03-06T11:19:07;12.40;99.90
22337;DHT22;14992;50.844;4.418;2024-03-06T11:21:45;12.30;99.90
22337;DHT22;14992;50.844;4.418;2024-03-06T11:24:19;12.40;99.90
22337;DHT22;14992;50.844;4.418;2024-03-06T11:26:55;12.50;99.90
22337;DHT22;14992;50.844;4.418;2024-03-06T11:32:11;12.40;99.90
22337;DHT22;14992;50.844;4.418;2024-03-06T11:34:40;12.60;99.90
22337;DHT22;14992;50.844;4.418;2024-03-06T11:37:09;12.80;99.90
22337;DHT22;14992;50.844;4.418;2024-03-06T11:39:40;12.90;99.90
22337;DHT22;14992;50.844;4.418;2024-03-06T11:42:14;12.90;99.90
22337;DHT22;14992;50.844;4.418;2024-03-06T11:44:53;13.00;99.90
22337;DHT22;14992;50.844;4.418;2024-03-06T11:47:23;13.30;99.90
22337;DHT22;14992;50.844;4.418;2024-03-06T11:49:52;13.40;99.90
22337;DHT22;14992;50.844;4.418;2024-03-06T11:52:22;13.70;99.60
22337;DHT22;14992;50.844;4.418;2024-03-06T11:54:53;13.80;98.40
22337;DHT22;14992;50.844;4.418;2024-03-06T11:57:22;14.00;97.70
22337;DHT22;14992;50.844;4.418;2024-03-06T11:59:52;14.20;97.60
22337;DHT22;14992;50.844;4.418;2024-03-06T12:02:22;14.30;97.40
22337;DHT22;14992;50.844;4.418;2024-03-06T12:04:51;14.20;97.20
22337;DHT22;14992;50.844;4.418;2024-03-06T12:07:21;14.20;96.80
22337;DHT22;14992;50.844;4.418;2024-03-06T12:09:53;14.30;96.80
22337;DHT22;14992;50.844;4.418;2024-03-06T12:12:23;14.20;95.40
22337;DHT22;14992;50.844;4.418;2024-03-06T12:14:57;14.00;96.00
22337;DHT22;14992;50.844;4.418;2024-03-06T12:17:27;14.10;96.10
22337;DHT22;14992;50.844;4.418;2024-03-06T12:19:56;14.20;95.60
22337;DHT22;14992;50.844;4.418;2024-03-06T12:22:25;14.10;95.60
22337;DHT22;14992;50.844;4.418;2024-03-06T12:25:01;14.30;95.60
22337;DHT22;14992;50.844;4.418;2024-03-06T12:27:31;14.50;94.70
22337;DHT22;14992;50.844;4.418;2024-03-06T12:30:09;14.60;95.00
22337;DHT22;14992;50.844;4.418;2024-03-06T12:32:40;14.60;94.50
22337;DHT22;14992;50.844;4.418;2024-03-06T12:35:09;14.60;94.60
22337;DHT22;14992;50.844;4.418;2024-03-06T12:37:38;14.50;94.90
22337;DHT22;14992;50.844;4.418;2024-03-06T12:40:09;14.40;95.20
22337;DHT22;14992;50.844;4.418;2024-03-06T12:42:41;14.30;95.50
22337;DHT22;14992;50.844;4.418;2024-03-06T12:45:10;14.40;95.10
22337;DHT22;14992;50.844;4.418;2024-03-06T12:47:40;14.60;94.60
22337;DHT22;14992;50.844;4.418;2024-03-06T12:50:10;14.60;94.30
22337;DHT22;14992;50.844;4.418;2024-03-06T12:52:39;14.50;93.80
22337;DHT22;14992;50.844;4.418;2024-03-06T12:55:09;14.30;93.90
22337;DHT22;14992;50.844;4.418;2024-03-06T12:57:38;14.40;93.80
22337;DHT22;14992;50.844;4.418;2024-03-06T13:00:08;14.30;93.60
22337;DHT22;14992;50.844;4.418;2024-03-06T13:02:43;14.40;93.50
22337;DHT22;14992;50.844;4.418;2024-03-06T13:05:13;14.60;92.90
22337;DHT22;14992;50.844;4.418;2024-03-06T13:07:42;14.70;92.40
22337;DHT22;14992;50.844;4.418;2024-03-06T13:10:13;14.60;91.50
22337;DHT22;14992;50.844;4.418;2024-03-06T13:12:41;14.80;91.00
22337;DHT22;14992;50.844;4.418;2024-03-06T13:15:10;14.70;91.00
22337;DHT22;14992;50.844;4.418;2024-03-06T13:17:39;15.00;90.50
22337;DHT22;14992;50.844;4.418;2024-03-06T13:20:09;15.10;90.00
22337;DHT22;14992;50.844;4.418;2024-03-06T13:22:39;14.90;90.40
22337;DHT22;14992;50.844;4.418;2024-03-06T13:25:08;14.80;90.90
22337;DHT22;14992;50.844;4.418;2024-03-06T13:27:39;14.80;90.70
22337;DHT22;14992;50.844;4.418;2024-03-06T13:30:08;14.60;90.20
22337;DHT22;14992;50.844;4.418;2024-03-06T13:32:37;14.60;90.00
22337;DHT22;14992;50.844;4.418;2024-03-06T13:35:07;14.50;90.50
22337;DHT22;14992;50.844;4.418;2024-03-06T13:37:40;14.40;90.60
22337;DHT22;14992;50.844;4.418;2024-03-06T13:40:10;14.40;90.50
22337;DHT22;14992;50.844;4.418;2024-03-06T13:42:43;14.40;90.00
22337;DHT22;14992;50.844;4.418;2024-03-06T13:45:12;14.40;89.20
22337;DHT22;14992;50.844;4.418;2024-03-06T13:47:43;14.30;89.20
22337;DHT22;14992;50.844;4.418;2024-03-06T13:50:13;14.50;90.40
22337;DHT22;14992;50.844;4.418;2024-03-06T13:52:43;14.60;89.00
22337;DHT22;14992;50.844;4.418;2024-03-06T13:55:12;14.50;88.30
22337;DHT22;14992;50.844;4.418;2024-03-06T13:57:42;14.50;87.20
22337;DHT22;14992;50.844;4.418;2024-03-06T14:00:12;14.60;86.50
22337;DHT22;14992;50.844;4.418;2024-03-06T14:02:45;14.60;87.30
22337;DHT22;14992;50.844;4.418;2024-03-06T14:05:15;14.70;86.60
22337;DHT22;14992;50.844;4.418;2024-03-06T14:07:44;14.60;86.70
22337;DHT22;14992;50.844;4.418;2024-03-06T14:10:13;14.60;86.20
22337;DHT22;14992;50.844;4.418;2024-03-06T14:12:44;14.60;86.00
22337;DHT22;14992;50.844;4.418;2024-03-06T14:15:12;14.70;85.40
22337;DHT22;14992;50.844;4.418;2024-03-06T14:17:43;14.70;84.10
22337;DHT22;14992;50.844;4.418;2024-03-06T14:20:13;14.60;82.80
22337;DHT22;14992;50.844;4.418;2024-03-06T14:22:43;14.60;83.50
22337;DHT22;14992;50.844;4.418;2024-03-06T14:25:12;14.60;83.10
22337;DHT22;14992;50.844;4.418;2024-03-06T14:27:41;14.60;83.40
22337;DHT22;14992;50.844;4.418;2024-03-06T14:30:12;14.60;83.50
22337;DHT22;14992;50.844;4.418;2024-03-06T14:32:42;14.60;82.80
22337;DHT22;14992;50.844;4.418;2024-03-06T14:35:15;14.60;83.20
22337;DHT22;14992;50.844;4.418;2024-03-06T14:37:44;14.50;84.10
22337;DHT22;14992;50.844;4.418;2024-03-06T14:40:13;14.50;84.50
22337;DHT22;14992;50.844;4.418;2024-03-06T14:42:42;14.50;84.40
22337;DHT22;14992;50.844;4.418;2024-03-06T14:45:13;14.50;84.50
22337;DHT22;14992;50.844;4.418;2024-03-06T14:47:42;14.40;83.70
22337;DHT22;14992;50.844;4.418;2024-03-06T14:50:11;14.30;84.40
22337;DHT22;14992;50.844;4.418;2024-03-06T14:52:39;14.20;85.50
22337;DHT22;14992;50.844;4.418;2024-03-06T14:55:08;14.30;84.90
22337;DHT22;14992;50.844;4.418;2024-03-06T14:57:37;14.50;85.30
22337;DHT22;14992;50.844;4.418;2024-03-06T15:00:07;14.60;84.80
22337;DHT22;14992;50.844;4.418;2024-03-06T15:02:37;14.70;84.40
22337;DHT22;14992;50.844;4.418;2024-03-06T15:05:08;14.60;84.80
22337;DHT22;14992;50.844;4.418;2024-03-06T15:07:39;14.60;86.10
22337;DHT22;14992;50.844;4.418;2024-03-06T15:10:09;14.30;86.60
22337;DHT22;14992;50.844;4.418;2024-03-06T15:12:39;14.00;87.90
22337;DHT22;14992;50.844;4.418;2024-03-06T15:15:10;14.00;89.20
22337;DHT22;14992;50.844;4.418;2024-03-06T15:17:40;14.00;89.80
22337;DHT22;14992;50.844;4.418;2024-03-06T15:20:10;13.90;86.80
22337;DHT22;14992;50.844;4.418;2024-03-06T15:22:39;14.00;87.20
22337;DHT22;14992;50.844;4.418;2024-03-06T15:25:10;14.00;89.10
22337;DHT22;14992;50.844;4.418;2024-03-06T15:27:40;14.00;88.10
22337;DHT22;14992;50.844;4.418;2024-03-06T15:30:10;14.10;87.70
22337;DHT22;14992;50.844;4.418;2024-03-06T15:32:44;14.10;86.90
22337;DHT22;14992;50.844;4.418;2024-03-06T15:35:13;14.00;88.00
22337;DHT22;14992;50.844;4.418;2024-03-06T15:37:43;13.90;87.30
22337;DHT22;14992;50.844;4.418;2024-03-06T15:40:12;13.90;86.90
22337;DHT22;14992;50.844;4.418;2024-03-06T15:42:41;13.80;87.40
22337;DHT22;14992;50.844;4.418;2024-03-06T15:45:11;13.70;87.10
22337;DHT22;14992;50.844;4.418;2024-03-06T15:47:40;13.50;89.30
22337;DHT22;14992;50.844;4.418;2024-03-06T15:50:14;13.60;87.90
22337;DHT22;14992;50.844;4.418;2024-03-06T15:52:43;13.60;87.90
22337;DHT22;14992;50.844;4.418;2024-03-06T15:55:12;13.60;87.40
22337;DHT22;14992;50.844;4.418;2024-03-06T15:57:41;13.50;87.80
22337;DHT22;14992;50.844;4.418;2024-03-06T16:00:12;13.50;87.50
22337;DHT22;14992;50.844;4.418;2024-03-06T16:02:43;13.50;86.60
22337;DHT22;14992;50.844;4.418;2024-03-06T16:05:14;13.50;86.60